YBBN/BNE METAR and TAF weather

Enter ICAO airport designator
Station Type Date Time Source
YBBN METAR 2019/05/27 09:00 UTC NOAA

YBBN 270900Z 26011KT CAVOK 21/05 Q1013 NOSIG


Station Type Date Time Source
YBBN Decoded METAR 2019/05/27 09:00 UTC NOAA

Brisbane Airport M. O, Australia (YBBN) 27-23S 153-06E 5M
May 27, 2019 - 05:00 AM EDT / 2019.05.27 0900 UTC
Wind: from the W (260 degrees) at 13 MPH (11 KT):0
Visibility: greater than 7 mile(s):0
Temperature: 69 F (21 C)
Dew Point: 41 F (5 C)
Relative Humidity: 35%
Pressure (altimeter): 29.91 in. Hg (1013 hPa)
ob: YBBN 270900Z 26011KT CAVOK 21/05 Q1013 NOSIG
cycle: 9

Station Type Date Time Source
YBBN TAF 2019/05/27 06:39 UTC NOAA

TAF TAF YBBN 270509Z 2706/2812 26014G28KT CAVOK
FM270900 25010KT CAVOK
RMK FROM 270600 MOD TURB BLW 5000FT TL271500 T 25 20 17 14 Q 1011 1014 1016 1016

Example: see airport list